Time;durP1;ratioP1;P1;durP2;ratioP2;P2;SDS_P1;SDS_P2;PMS_P1;PMS_P2;Temp;Humidity;BMP_temperature;BMP_pressure;BME280_temperature;BME280_humidity;BME280_pressure;Samples;Min_cycle;Max_cycle;Signal;HPM_P1;HPM_P2
2022/07/19 00:00:17;;;;;;;2.10;1.90;;;;;;;20.25;54.74;97768.69;4802324;29;20234;-69
2022/07/19 00:02:44;;;;;;;3.83;2.33;;;;;;;20.23;54.55;97751.34;4802547;29;20210;-68
2022/07/19 00:05:13;;;;;;;2.40;2.03;;;;;;;20.37;54.78;97766.09;4802493;29;20217;-69
2022/07/19 00:07:41;;;;;;;4.63;2.30;;;;;;;20.32;54.59;97768.25;4802213;29;20703;-68
2022/07/19 00:10:10;;;;;;;2.80;2.43;;;;;;;20.09;54.64;97767.25;4802362;29;20214;-68
2022/07/19 00:12:39;;;;;;;3.50;2.37;;;;;;;19.99;55.10;97760.97;4802216;29;20691;-69
2022/07/19 00:15:08;;;;;;;2.27;1.90;;;;;;;20.02;55.18;97764.22;4802292;29;20966;-69
2022/07/19 00:17:40;;;;;;;3.40;2.00;;;;;;;19.65;55.96;97753.78;4802167;29;20262;-68
2022/07/19 00:20:08;;;;;;;6.00;2.20;;;;;;;19.44;56.37;97754.34;4785787;29;20206;-68
2022/07/19 00:22:35;;;;;;;4.77;2.20;;;;;;;19.36;56.85;97751.44;4802359;29;20217;-69
2022/07/19 00:25:03;;;;;;;2.03;1.93;;;;;;;19.43;56.78;97741.34;4802079;29;20280;-67
2022/07/19 00:27:30;;;;;;;5.17;2.33;;;;;;;19.65;55.47;97741.50;4802092;29;20207;-68
2022/07/19 00:29:57;;;;;;;2.17;1.97;;;;;;;19.75;55.21;97760.06;4802043;29;20234;-67
2022/07/19 00:32:24;;;;;;;4.47;2.50;;;;;;;19.51;55.90;97748.66;4801806;29;20652;-68
2022/07/19 00:34:51;;;;;;;2.50;2.00;;;;;;;19.46;56.15;97741.09;4801868;29;20194;-68
2022/07/19 00:37:18;;;;;;;2.90;2.60;;;;;;;19.27;56.66;97741.50;4801893;29;20824;-69
2022/07/19 00:39:45;;;;;;;2.70;2.10;;;;;;;19.26;56.35;97745.09;4801636;29;20211;-68
2022/07/19 00:42:14;;;;;;;2.67;2.20;;;;;;;19.07;57.51;97742.06;4801727;29;20241;-69
2022/07/19 00:44:41;;;;;;;2.80;2.00;;;;;;;18.95;57.50;97740.28;4801660;29;20672;-69
2022/07/19 00:47:08;;;;;;;2.23;1.90;;;;;;;19.07;57.17;97738.59;4801816;29;20214;-69
2022/07/19 00:49:35;;;;;;;3.90;2.43;;;;;;;18.95;57.19;97735.03;4801780;29;20214;-69
2022/07/19 00:52:03;;;;;;;2.57;2.10;;;;;;;19.15;56.75;97729.22;4801610;29;20294;-67
2022/07/19 00:54:34;;;;;;;2.30;2.10;;;;;;;19.44;55.79;97735.97;4801329;29;20314;-69
2022/07/19 00:57:03;;;;;;;5.70;2.13;;;;;;;19.57;55.06;97740.34;4801651;29;20218;-69
2022/07/19 00:59:31;;;;;;;2.83;1.90;;;;;;;19.66;55.28;97734.47;4801545;29;20682;-69
2022/07/19 01:01:59;;;;;;;2.30;2.07;;;;;;;19.77;55.23;97737.16;4801485;29;20249;-68
2022/07/19 01:04:27;;;;;;;4.37;2.87;;;;;;;19.80;54.65;97740.41;4801488;29;20201;-68
2022/07/19 01:06:54;;;;;;;3.47;2.77;;;;;;;19.62;55.03;97739.06;4801279;29;20206;-68
2022/07/19 01:09:21;;;;;;;2.80;2.17;;;;;;;19.63;55.20;97732.88;4785132;29;20226;-68
2022/07/19 01:11:49;;;;;;;2.30;2.10;;;;;;;19.69;55.20;97732.44;4801183;29;20578;-68
2022/07/19 01:14:15;;;;;;;2.33;2.13;;;;;;;19.67;55.41;97736.13;4801175;29;20729;-68
2022/07/19 01:16:44;;;;;;;2.37;2.07;;;;;;;19.63;55.24;97724.16;4801144;29;20241;-69
2022/07/19 01:19:13;;;;;;;4.40;2.50;;;;;;;19.62;55.72;97722.50;4801233;29;20198;-68
2022/07/19 01:21:41;;;;;;;3.30;2.20;;;;;;;19.57;55.80;97728.06;4801048;29;20240;-68
2022/07/19 01:24:08;;;;;;;3.07;2.20;;;;;;;19.40;56.44;97720.53;4801137;29;20214;-67
2022/07/19 01:26:36;;;;;;;7.23;2.30;;;;;;;19.46;56.34;97728.81;4800988;29;20717;-68
2022/07/19 01:29:03;;;;;;;2.70;2.20;;;;;;;19.44;55.63;97732.50;4800903;29;20214;-67
2022/07/19 01:31:30;;;;;;;3.70;2.17;;;;;;;19.15;56.71;97736.25;4800997;29;20220;-67
2022/07/19 01:33:58;;;;;;;3.73;2.20;;;;;;;19.15;56.56;97718.72;4800776;29;20210;-67
2022/07/19 01:36:24;;;;;;;4.77;1.90;;;;;;;19.21;56.47;97718.31;4800865;29;20206;-67
2022/07/19 01:38:52;;;;;;;4.97;2.20;;;;;;;19.15;56.37;97716.09;4801126;29;20209;-67
2022/07/19 01:41:19;;;;;;;2.57;2.17;;;;;;;18.92;56.24;97687.16;4801042;29;20503;-67
2022/07/19 01:43:46;;;;;;;3.40;2.00;;;;;;;19.08;56.53;97725.34;4799967;29;20233;-67
2022/07/19 01:46:12;;;;;;;6.90;2.03;;;;;;;18.86;56.20;97709.38;4800736;29;20212;-66
2022/07/19 01:48:39;;;;;;;5.13;2.33;;;;;;;18.60;57.03;97723.44;4800697;29;20214;-67
2022/07/19 01:51:06;;;;;;;4.10;2.47;;;;;;;18.32;58.07;97727.00;4800585;29;20755;-67
2022/07/19 01:53:33;;;;;;;4.73;2.53;;;;;;;18.35;58.34;97726.81;4800891;29;20660;-68
2022/07/19 01:56:04;;;;;;;2.27;2.10;;;;;;;18.44;58.12;97725.41;4800644;29;20287;-68
2022/07/19 01:58:31;;;;;;;3.60;2.40;;;;;;;18.59;57.81;97726.97;4800357;29;20225;-69
2022/07/19 02:01:01;;;;;;;4.97;2.40;;;;;;;18.66;57.16;97725.66;4800327;29;20237;-69
2022/07/19 02:03:28;;;;;;;4.67;2.47;;;;;;;18.15;58.06;97721.19;4800250;29;20209;-68
2022/07/19 02:05:55;;;;;;;2.90;2.30;;;;;;;17.73;59.11;97724.78;4800585;29;20675;-66
2022/07/19 02:08:22;;;;;;;5.43;2.53;;;;;;;17.57;59.62;97730.16;4800759;29;20864;-67
2022/07/19 02:10:50;;;;;;;2.40;2.20;;;;;;;17.48;60.19;97725.44;4800254;29;20207;-67
2022/07/19 02:13:17;;;;;;;5.13;2.43;;;;;;;17.48;60.12;97725.44;4800420;29;20597;-67
2022/07/19 02:16:04;;;;;;;4.73;2.37;;;;;;;17.36;61.35;97722.75;4786623;29;20679;-67
2022/07/19 02:18:32;;;;;;;5.10;2.77;;;;;;;17.38;62.03;97724.34;4800109;29;20212;-66
2022/07/19 02:20:59;;;;;;;2.83;2.10;;;;;;;17.26;62.22;97725.09;4800337;29;20236;-67
2022/07/19 02:23:26;;;;;;;4.23;2.30;;;;;;;17.29;62.21;97730.13;4800120;29;20204;-66
2022/07/19 02:25:52;;;;;;;3.67;2.83;;;;;;;17.48;61.62;97730.69;4800074;29;20208;-67
2022/07/19 02:28:19;;;;;;;5.70;2.30;;;;;;;17.53;61.73;97728.66;4800161;29;20798;-67
2022/07/19 02:30:46;;;;;;;2.50;2.30;;;;;;;17.30;63.59;97734.44;4800168;29;20219;-67
2022/07/19 02:33:13;;;;;;;3.90;2.17;;;;;;;17.23;64.27;97722.66;4800133;29;20265;-68
2022/07/19 02:35:40;;;;;;;4.47;2.60;;;;;;;16.90;65.76;97709.84;4799862;29;20298;-67
2022/07/19 02:38:07;;;;;;;3.50;2.40;;;;;;;16.94;65.61;97723.56;4800411;29;20231;-67
2022/07/19 02:40:34;;;;;;;2.77;2.57;;;;;;;16.78;66.04;97725.44;4799985;29;20608;-68
2022/07/19 02:43:01;;;;;;;4.47;2.37;;;;;;;16.82;66.29;97730.38;4799852;29;20211;-69
2022/07/19 02:45:28;;;;;;;4.57;3.00;;;;;;;16.79;66.22;97719.28;4799799;29;20223;-68
2022/07/19 02:47:55;;;;;;;4.17;3.30;;;;;;;16.76;66.64;97730.75;4799938;29;20206;-69
2022/07/19 02:50:22;;;;;;;7.37;3.97;;;;;;;16.75;66.20;97728.25;4799736;29;20644;-69
2022/07/19 02:52:49;;;;;;;6.03;4.10;;;;;;;16.73;66.44;97735.34;4783497;29;20211;-69
2022/07/19 02:55:16;;;;;;;5.97;5.30;;;;;;;16.84;66.18;97727.69;4801887;29;20241;-69
2022/07/19 02:57:43;;;;;;;5.27;4.33;;;;;;;17.01;65.31;97732.75;4803631;29;20263;-69
2022/07/19 03:00:11;;;;;;;9.80;5.10;;;;;;;17.17;64.73;97732.66;4803823;29;20377;-70
2022/07/19 03:02:38;;;;;;;5.10;4.60;;;;;;;17.03;64.74;97738.72;4803273;29;20723;-69
2022/07/19 03:05:07;;;;;;;4.97;4.50;;;;;;;16.84;65.23;97731.13;4803366;29;20206;-69
2022/07/19 03:07:34;;;;;;;5.07;4.40;;;;;;;16.68;65.83;97740.84;4803397;29;20238;-69
2022/07/19 03:10:02;;;;;;;7.73;4.67;;;;;;;16.49;66.49;97736.72;4803245;29;20214;-68
2022/07/19 03:12:29;;;;;;;6.47;4.33;;;;;;;16.73;65.82;97730.94;4803340;29;20241;-70
2022/07/19 03:14:56;;;;;;;4.50;3.90;;;;;;;16.61;66.58;97733.44;4803301;29;20208;-69
2022/07/19 03:17:23;;;;;;;5.10;3.60;;;;;;;16.73;66.22;97724.88;4803382;29;20702;-69
2022/07/19 03:19:50;;;;;;;4.60;3.23;;;;;;;16.77;65.74;97736.84;4803384;29;20242;-69
2022/07/19 03:22:17;;;;;;;4.73;3.43;;;;;;;16.87;65.64;97727.50;4803041;29;20239;-69
2022/07/19 03:24:44;;;;;;;4.83;3.70;;;;;;;16.82;65.67;97732.16;4802972;29;20291;-68
2022/07/19 03:27:11;;;;;;;6.70;3.70;;;;;;;16.74;66.09;97742.25;4803027;29;20562;-68
2022/07/19 03:29:38;;;;;;;4.73;3.90;;;;;;;16.60;66.34;97739.59;4803226;29;20191;-69
2022/07/19 03:32:05;;;;;;;5.27;3.73;;;;;;;16.60;66.07;97726.53;4803074;29;20692;-70
2022/07/19 03:34:32;;;;;;;5.17;3.23;;;;;;;16.88;65.54;97729.19;4803032;29;20290;-68
2022/07/19 03:36:59;;;;;;;3.90;3.33;;;;;;;16.88;65.19;97737.03;4803301;29;20207;-69
2022/07/19 03:39:26;;;;;;;5.40;3.43;;;;;;;16.83;65.48;97733.84;4802904;29;20218;-68
2022/07/19 03:41:52;;;;;;;8.03;3.63;;;;;;;16.62;65.26;97703.72;4802875;29;20652;-68
2022/07/19 03:44:26;;;;;;;5.77;3.57;;;;;;;17.00;65.17;97734.50;4802926;29;20208;-69
2022/07/19 03:46:53;;;;;;;5.30;3.40;;;;;;;17.15;64.18;97745.00;4802794;29;20204;-68
2022/07/19 03:49:20;;;;;;;4.30;3.50;;;;;;;17.63;63.30;97742.88;4802763;29;20200;-69
2022/07/19 03:51:47;;;;;;;5.17;3.70;;;;;;;18.19;61.14;97741.88;4802747;29;20206;-69
2022/07/19 03:54:14;;;;;;;6.20;4.20;;;;;;;18.47;59.90;97725.19;4802835;29;20216;-68
2022/07/19 03:56:41;;;;;;;4.17;3.10;;;;;;;19.01;58.95;97739.00;4802572;29;20657;-69
2022/07/19 03:59:08;;;;;;;4.07;2.83;;;;;;;19.76;56.90;97743.38;4802403;29;20261;-69
2022/07/19 04:01:35;;;;;;;4.20;3.20;;;;;;;19.19;57.29;97748.22;4802528;29;20249;-67
2022/07/19 04:04:02;;;;;;;6.27;3.30;;;;;;;18.80;58.41;97741.28;4802309;29;20209;-68
2022/07/19 04:06:29;;;;;;;4.40;3.50;;;;;;;18.58;59.59;97754.19;4800931;29;20216;-69
2022/07/19 04:08:56;;;;;;;11.23;4.07;;;;;;;18.37;60.33;97760.78;4801353;29;20717;-67
2022/07/19 04:11:23;;;;;;;5.47;3.20;;;;;;;18.38;60.48;97752.00;4799299;29;20210;-67
2022/07/19 04:13:50;;;;;;;5.87;3.63;;;;;;;18.80;59.60;97751.78;4795013;29;20204;-67
2022/07/19 04:16:17;;;;;;;3.43;3.07;;;;;;;19.15;58.18;97747.63;4783753;29;20254;-69
2022/07/19 04:18:44;;;;;;;4.67;3.13;;;;;;;18.96;59.42;97757.69;4792772;29;20213;-68
2022/07/19 04:21:11;;;;;;;6.30;2.90;;;;;;;18.92;59.83;97750.16;4802017;29;20887;-68
2022/07/19 04:23:38;;;;;;;7.90;3.07;;;;;;;18.97;59.88;97753.28;4801781;29;20217;-68
2022/07/19 04:26:05;;;;;;;4.93;2.53;;;;;;;18.98;59.72;97753.16;4801611;29;20304;-68
2022/07/19 04:28:32;;;;;;;5.63;3.10;;;;;;;19.11;59.78;97756.66;4801702;29;20201;-68
2022/07/19 04:30:59;;;;;;;3.13;2.50;;;;;;;18.93;59.89;97752.66;4801310;29;20245;-68
2022/07/19 04:33:26;;;;;;;4.10;2.80;;;;;;;19.64;58.44;97755.56;4801215;29;20216;-68
2022/07/19 04:35:53;;;;;;;5.73;3.07;;;;;;;20.00;56.79;97757.38;4785568;29;20738;-68
2022/07/19 04:38:21;;;;;;;6.07;3.47;;;;;;;20.37;55.67;97759.06;4801816;29;20266;-69
2022/07/19 04:40:48;;;;;;;5.00;3.87;;;;;;;20.35;55.38;97762.75;4801611;29;20203;-68
2022/07/19 04:43:18;;;;;;;7.77;4.83;;;;;;;20.02;56.23;97755.47;4801611;29;20235;-69
2022/07/19 04:45:45;;;;;;;5.23;4.73;;;;;;;20.10;55.58;97753.97;4801495;29;20207;-68
2022/07/19 04:48:13;;;;;;;6.90;4.20;;;;;;;20.74;54.15;97759.78;4784924;29;20242;-70
2022/07/19 04:50:41;;;;;;;6.87;3.77;;;;;;;21.37;52.01;97754.91;4801139;29;20306;-69
2022/07/19 04:53:08;;;;;;;4.30;2.97;;;;;;;21.73;51.04;97751.19;4801277;29;20216;-68
2022/07/19 04:55:38;;;;;;;5.73;3.50;;;;;;;22.19;49.50;97759.78;4801275;29;20771;-69
2022/07/19 04:58:05;;;;;;;12.30;5.10;;;;;;;22.44;49.32;97761.25;4801151;29;20213;-68
2022/07/19 05:00:32;;;;;;;5.10;2.37;;;;;;;22.46;48.87;97757.50;4801184;29;20651;-70
2022/07/19 05:02:59;;;;;;;4.23;2.40;;;;;;;22.75;48.57;97756.97;4801030;29;20246;-68
2022/07/19 05:05:26;;;;;;;2.63;2.27;;;;;;;23.02;47.74;97757.28;4801337;29;20220;-69
2022/07/19 05:07:53;;;;;;;4.73;3.10;;;;;;;22.99;47.55;97754.91;4801102;29;20225;-69
2022/07/19 05:10:20;;;;;;;4.40;2.50;;;;;;;23.02;48.31;97754.66;4800940;29;20201;-69
2022/07/19 05:12:47;;;;;;;4.30;2.10;;;;;;;23.12;47.90;97747.63;4800907;29;20579;-68
2022/07/19 05:15:14;;;;;;;5.10;2.60;;;;;;;23.29;47.55;97762.84;4801151;29;20206;-69
2022/07/19 05:17:42;;;;;;;2.77;2.30;;;;;;;22.93;48.14;97752.78;4800705;29;20659;-68
2022/07/19 05:20:10;;;;;;;5.90;2.20;;;;;;;23.13;48.42;97741.34;4800752;29;20216;-71
2022/07/19 05:22:37;;;;;;;3.17;2.40;;;;;;;23.19;48.20;97752.25;4800810;29;20306;-68
2022/07/19 05:25:10;;;;;;;3.40;2.37;;;;;;;23.28;47.89;97748.81;4800719;29;20207;-68
2022/07/19 05:27:37;;;;;;;4.60;2.10;;;;;;;23.19;48.33;97749.59;4800563;29;20218;-69
2022/07/19 05:30:05;;;;;;;4.10;2.57;;;;;;;23.21;47.71;97750.31;4800383;29;20257;-69
2022/07/19 05:32:33;;;;;;;3.40;2.50;;;;;;;23.08;46.75;97754.13;4800660;29;20211;-69
2022/07/19 05:35:01;;;;;;;10.50;3.10;;;;;;;23.17;47.14;97751.53;4800478;29;20680;-69
2022/07/19 05:37:29;;;;;;;5.53;2.10;;;;;;;23.38;46.99;97751.53;4800392;29;20311;-69
2022/07/19 05:39:56;;;;;;;3.63;2.00;;;;;;;23.65;45.18;97749.16;4800299;29;20214;-68
2022/07/19 05:42:23;;;;;;;3.60;2.20;;;;;;;23.83;44.54;97744.91;4800034;29;20246;-69
2022/07/19 05:44:50;;;;;;;3.37;2.27;;;;;;;23.89;44.06;97744.34;4800887;29;20217;-68
2022/07/19 05:47:17;;;;;;;4.57;2.17;;;;;;;24.04;43.21;97740.41;4798771;29;20340;-69
2022/07/19 05:49:44;;;;;;;2.37;1.97;;;;;;;23.72;42.90;97739.69;4800490;29;20191;-69
2022/07/19 05:52:11;;;;;;;5.00;2.30;;;;;;;23.85;42.77;97740.31;4800157;29;20780;-69
2022/07/19 05:54:38;;;;;;;3.20;2.20;;;;;;;24.17;42.32;97743.59;4800124;29;20256;-69
2022/07/19 05:57:05;;;;;;;3.30;2.13;;;;;;;24.52;41.90;97739.63;4799846;29;20205;-69
2022/07/19 05:59:35;;;;;;;5.80;2.23;;;;;;;24.78;40.64;97743.41;4800045;29;20216;-70
2022/07/19 06:02:03;;;;;;;7.70;2.50;;;;;;;24.96;40.42;97739.03;4799639;29;20309;-73
2022/07/19 06:04:30;;;;;;;5.30;3.00;;;;;;;25.14;39.66;97718.81;4800216;29;20601;-69
2022/07/19 06:06:57;;;;;;;5.07;2.13;;;;;;;25.39;39.67;97731.41;4783485;29;20209;-69
2022/07/19 06:09:24;;;;;;;5.53;2.37;;;;;;;25.25;39.38;97731.88;4800000;29;20206;-70
2022/07/19 06:11:52;;;;;;;4.43;2.07;;;;;;;25.17;39.48;97742.34;4800913;29;20192;-70
2022/07/19 06:14:20;;;;;;;2.57;2.03;;;;;;;25.13;39.76;97735.66;4800429;29;20214;-72
2022/07/19 06:16:47;;;;;;;3.33;2.37;;;;;;;25.29;39.65;97721.78;4799570;29;20245;-71
2022/07/19 06:19:14;;;;;;;5.97;3.63;;;;;;;25.74;39.92;97725.41;4799747;29;20611;-68
2022/07/19 06:21:41;;;;;;;4.60;2.67;;;;;;;25.77;38.53;97731.28;4799706;29;20214;-70
2022/07/19 06:24:08;;;;;;;7.93;2.53;;;;;;;25.90;39.02;97733.59;4799427;29;20208;-69
2022/07/19 06:26:35;;;;;;;4.00;2.13;;;;;;;26.04;38.98;97726.94;4800101;29;20217;-69
2022/07/19 06:29:02;;;;;;;2.20;2.00;;;;;;;25.82;39.10;97728.19;4799012;29;20215;-69
2022/07/19 06:31:30;;;;;;;12.20;5.10;;;;;;;25.91;38.60;97724.63;4799484;29;20209;-69
2022/07/19 06:33:58;;;;;;;5.87;2.57;;;;;;;26.17;37.94;97725.59;4799250;29;20240;-69
2022/07/19 06:36:25;;;;;;;6.07;1.73;;;;;;;26.30;37.02;97722.59;4799932;29;20671;-69
2022/07/19 06:38:52;;;;;;;4.53;2.10;;;;;;;26.42;37.55;97716.09;4799363;29;20592;-69
2022/07/19 06:41:19;;;;;;;4.27;1.93;;;;;;;26.54;36.42;97721.00;4798987;29;20211;-68
2022/07/19 06:43:46;;;;;;;2.03;1.60;;;;;;;26.52;36.24;97728.28;4799217;29;20253;-69
2022/07/19 06:46:13;;;;;;;4.40;2.27;;;;;;;26.52;36.84;97717.66;4799416;29;20225;-68
2022/07/19 06:48:40;;;;;;;3.57;1.80;;;;;;;26.71;35.40;97714.00;4799954;29;20281;-68
2022/07/19 06:51:07;;;;;;;5.03;1.73;;;;;;;26.66;34.06;97703.00;4798908;29;20686;-71
2022/07/19 06:53:35;;;;;;;2.70;1.80;;;;;;;26.73;35.25;97713.91;4799445;29;20205;-69
2022/07/19 06:56:02;;;;;;;3.13;1.80;;;;;;;26.79;35.10;97716.75;4799153;29;20279;-69
2022/07/19 06:58:30;;;;;;;2.93;1.80;;;;;;;26.82;34.60;97708.50;4782948;29;20605;-69
2022/07/19 07:01:05;;;;;;;6.60;2.47;;;;;;;26.89;33.55;97706.88;4799191;29;20206;-69
2022/07/19 07:03:33;;;;;;;3.77;2.20;;;;;;;27.05;32.83;97717.63;4798798;29;20718;-68
2022/07/19 07:06:00;;;;;;;2.70;1.90;;;;;;;27.26;32.32;97711.94;4798630;29;20203;-69
2022/07/19 07:08:27;;;;;;;7.37;2.50;;;;;;;27.41;31.96;97705.06;4798662;29;20214;-68
2022/07/19 07:10:53;;;;;;;6.37;3.57;;;;;;;27.60;32.42;97709.31;4798834;29;20690;-69
2022/07/19 07:13:20;;;;;;;5.30;2.83;;;;;;;27.76;30.37;97712.88;4798740;29;20530;-68
2022/07/19 07:15:48;;;;;;;5.43;2.00;;;;;;;27.95;30.52;97712.63;4798827;29;20301;-69
2022/07/19 07:18:15;;;;;;;4.00;1.77;;;;;;;27.98;31.32;97708.84;4798795;29;20300;-68
2022/07/19 07:20:41;;;;;;;4.27;1.67;;;;;;;27.96;30.70;97711.69;4799097;29;20199;-69
2022/07/19 07:23:08;;;;;;;3.20;1.70;;;;;;;28.18;30.30;97715.56;4782263;29;20319;-69
2022/07/19 07:25:36;;;;;;;4.97;2.07;;;;;;;28.17;29.71;97719.22;4798904;29;20214;-70
2022/07/19 07:28:03;;;;;;;4.67;1.70;;;;;;;28.01;30.37;97708.50;4798505;29;20203;-69
2022/07/19 07:30:30;;;;;;;2.77;1.53;;;;;;;27.87;29.31;97711.75;4798687;29;20214;-70
2022/07/19 07:32:57;;;;;;;2.50;1.73;;;;;;;27.94;30.10;97707.47;4798760;29;20210;-69
2022/07/19 07:35:24;;;;;;;8.90;2.00;;;;;;;27.94;30.47;97696.81;4798898;29;20191;-69
2022/07/19 07:37:51;;;;;;;4.47;2.53;;;;;;;28.12;30.01;97700.22;4799017;29;20226;-70
2022/07/19 07:40:18;;;;;;;6.00;3.40;;;;;;;28.07;29.82;97700.72;4799214;29;20213;-69
2022/07/19 07:42:45;;;;;;;2.80;2.37;;;;;;;28.17;29.46;97693.41;4801473;29;20241;-68
2022/07/19 07:45:12;;;;;;;4.27;2.47;;;;;;;27.95;29.81;97685.16;4801986;29;20214;-68
2022/07/19 07:47:39;;;;;;;8.10;3.83;;;;;;;28.18;29.83;97707.56;4802925;29;20659;-68
2022/07/19 07:50:07;;;;;;;5.07;1.70;;;;;;;27.45;29.03;97701.09;4801949;29;20576;-69
2022/07/19 07:52:34;;;;;;;2.27;1.50;;;;;;;27.34;29.14;97704.88;4802088;29;20207;-68
2022/07/19 07:55:02;;;;;;;3.93;1.73;;;;;;;27.03;29.07;97702.81;4801882;29;20230;-68
2022/07/19 07:57:49;;;;;;;3.20;1.60;;;;;;;27.18;29.02;97699.41;4801286;29;20719;-68
2022/07/19 08:00:16;;;;;;;2.57;2.03;;;;;;;27.06;28.75;97703.34;4801748;29;20691;-68
2022/07/19 08:02:45;;;;;;;2.37;1.60;;;;;;;27.23;29.35;97706.94;4801618;29;20307;-69
2022/07/19 08:05:12;;;;;;;2.63;2.00;;;;;;;26.84;30.07;97698.53;4801638;29;21019;-68
2022/07/19 08:07:39;;;;;;;3.23;2.43;;;;;;;26.83;29.63;97686.22;4801666;29;20219;-68
2022/07/19 08:10:09;;;;;;;3.07;1.90;;;;;;;27.12;29.05;97702.72;4785642;29;20214;-68
2022/07/19 08:12:36;;;;;;;2.70;1.73;;;;;;;26.60;29.17;97698.31;4801339;29;20255;-68
2022/07/19 08:15:05;;;;;;;3.93;3.57;;;;;;;26.88;29.41;97697.22;4801599;29;20210;-69
2022/07/19 08:17:32;;;;;;;4.23;2.13;;;;;;;27.04;29.24;97697.34;4801726;29;20238;-68
2022/07/19 08:19:59;;;;;;;2.23;1.30;;;;;;;26.76;29.40;97693.16;4801706;29;20271;-69
2022/07/19 08:22:28;;;;;;;3.60;1.57;;;;;;;27.31;29.23;97689.19;4800397;29;20233;-68
2022/07/19 08:24:55;;;;;;;2.90;2.00;;;;;;;27.76;28.61;97690.78;4784763;29;20207;-69
2022/07/19 08:27:23;;;;;;;2.73;1.30;;;;;;;27.73;28.06;97694.59;4801497;29;20214;-69
2022/07/19 08:29:50;;;;;;;3.53;1.60;;;;;;;27.43;28.64;97687.13;4801315;29;20206;-70
2022/07/19 08:32:17;;;;;;;3.23;1.57;;;;;;;27.01;29.29;97679.06;4800948;29;20191;-70
2022/07/19 08:34:44;;;;;;;8.40;4.77;;;;;;;27.04;29.90;97685.84;4800906;29;20764;-69
2022/07/19 08:37:11;;;;;;;2.70;1.33;;;;;;;27.14;29.48;97670.66;4800777;29;20202;-68
2022/07/19 08:39:38;;;;;;;1.73;1.27;;;;;;;26.79;29.35;97681.38;4801032;29;20203;-68
2022/07/19 08:42:05;;;;;;;2.80;2.40;;;;;;;27.09;29.55;97684.41;4801064;29;20230;-69
2022/07/19 08:44:35;;;;;;;2.50;1.40;;;;;;;26.91;29.48;97683.63;4801343;29;20242;-68
2022/07/19 08:47:03;;;;;;;2.47;1.57;;;;;;;26.88;29.94;97677.78;4801033;29;20210;-69
2022/07/19 08:49:31;;;;;;;3.40;1.50;;;;;;;27.02;29.31;97667.41;4801092;29;20210;-68
2022/07/19 08:52:00;;;;;;;5.67;3.63;;;;;;;26.73;29.60;97688.13;4800145;29;20218;-68
2022/07/19 08:54:27;;;;;;;5.50;2.80;;;;;;;26.59;29.67;97635.50;4799520;29;20562;-70
2022/07/19 08:59:46;;;;;;;2.33;1.50;;;;;;;26.85;29.31;97673.63;4801294;29;20639;-68
2022/07/19 09:02:13;;;;;;;2.53;1.87;;;;;;;26.86;29.18;97669.13;4800186;29;20199;-69
2022/07/19 09:04:41;;;;;;;5.13;1.77;;;;;;;26.90;29.33;97667.81;4800551;29;21071;-69
2022/07/19 09:07:09;;;;;;;2.10;1.60;;;;;;;26.65;29.30;97671.28;4800371;29;20209;-71
2022/07/19 09:09:36;;;;;;;3.67;1.43;;;;;;;26.98;29.04;97679.34;4800707;29;20210;-71
2022/07/19 09:12:05;;;;;;;1.47;1.23;;;;;;;26.74;29.27;97671.22;4801333;29;20604;-68
2022/07/19 09:14:35;;;;;;;2.03;1.80;;;;;;;27.00;29.16;97663.22;4800461;29;20287;-68
2022/07/19 09:17:12;;;;;;;3.77;1.57;;;;;;;27.21;29.33;97669.00;4800092;29;20995;-69
2022/07/19 09:19:42;;;;;;;1.50;1.10;;;;;;;26.81;29.87;97668.78;4799218;29;20202;-69
2022/07/19 09:22:12;;;;;;;2.53;1.43;;;;;;;26.71;29.51;97660.03;4800677;29;20195;-69
2022/07/19 09:24:42;;;;;;;1.87;1.27;;;;;;;26.52;29.66;97663.72;4798826;29;20727;-69
2022/07/19 09:27:12;;;;;;;1.70;1.30;;;;;;;26.73;29.91;97644.81;4800182;29;20221;-69
2022/07/19 09:29:47;;;;;;;2.87;1.30;;;;;;;26.84;29.52;97658.66;4800177;29;20230;-70
2022/07/19 09:32:22;;;;;;;1.60;1.50;;;;;;;26.72;29.41;97659.91;4800353;29;20648;-71
2022/07/19 09:34:50;;;;;;;2.63;1.50;;;;;;;27.01;29.69;97660.44;4800110;29;20621;-68
2022/07/19 09:37:19;;;;;;;2.70;1.40;;;;;;;27.06;29.65;97652.00;4799640;29;20215;-70
2022/07/19 09:39:48;;;;;;;5.40;1.70;;;;;;;27.41;29.61;97661.69;4783713;29;20203;-68
2022/07/19 09:42:38;;;;;;;2.80;1.30;;;;;;;27.11;29.17;97655.84;4783427;29;20210;-68
2022/07/19 09:45:08;;;;;;;3.17;1.30;;;;;;;27.37;29.11;97672.63;4799910;29;20668;-70
2022/07/19 09:47:38;;;;;;;3.80;1.40;;;;;;;27.42;29.01;97664.19;4799968;29;20574;-67
2022/07/19 09:50:09;;;;;;;3.53;1.60;;;;;;;27.60;28.69;97656.09;4799727;29;20228;-68
2022/07/19 09:52:36;;;;;;;3.30;2.10;;;;;;;27.13;29.07;97659.19;4783280;29;20590;-69
2022/07/19 09:55:13;;;;;;;2.97;1.40;;;;;;;27.43;29.06;97659.69;4799987;29;20301;-69
2022/07/19 09:57:45;;;;;;;1.70;1.10;;;;;;;27.09;29.42;97652.50;4799466;29;20203;-69
2022/07/19 10:00:14;;;;;;;2.37;1.50;;;;;;;26.78;29.57;97650.47;4799304;29;20218;-68
2022/07/19 10:02:49;;;;;;;3.60;1.40;;;;;;;26.83;30.17;97654.31;4798933;29;20203;-69
2022/07/19 10:05:18;;;;;;;4.13;1.30;;;;;;;26.94;30.22;97659.38;4798706;29;20298;-70
2022/07/19 10:07:45;;;;;;;2.57;1.50;;;;;;;26.98;29.83;97654.56;4799709;29;20676;-69
2022/07/19 10:10:15;;;;;;;2.40;1.30;;;;;;;26.83;30.01;97661.47;4799692;29;20673;-69
2022/07/19 10:12:43;;;;;;;1.90;1.20;;;;;;;27.08;30.05;97650.00;4799435;29;20246;-70
2022/07/19 10:15:13;;;;;;;1.57;1.20;;;;;;;26.96;29.41;97657.41;4799718;29;20276;-69
2022/07/19 10:17:58;;;;;;;1.37;1.27;;;;;;;26.98;29.38;97647.44;4799167;29;20667;-69
2022/07/19 10:20:28;;;;;;;2.33;1.40;;;;;;;27.12;29.57;97646.03;4783056;29;20683;-69
2022/07/19 10:23:02;;;;;;;4.23;1.47;;;;;;;27.17;29.00;97641.91;4799536;29;20234;-70
2022/07/19 10:25:46;;;;;;;3.23;1.80;;;;;;;27.14;29.55;97636.88;4799623;29;20210;-67
2022/07/19 10:28:30;;;;;;;1.30;1.20;;;;;;;27.50;28.68;97642.06;4799463;29;20319;-68
2022/07/19 10:32:00;;;;;;;3.47;2.63;;;;;;;27.54;29.60;97640.75;4799529;29;20660;-70
2022/07/19 10:34:27;;;;;;;2.47;1.17;;;;;;;27.54;28.57;97620.31;4799192;29;20782;-69
2022/07/19 10:36:55;;;;;;;2.90;1.70;;;;;;;27.99;28.66;97622.59;4799309;29;20268;-69
2022/07/19 10:39:34;;;;;;;2.23;1.27;;;;;;;27.69;28.49;97639.16;4798987;29;20227;-68
2022/07/19 10:42:21;;;;;;;2.30;1.40;;;;;;;27.43;29.50;97630.44;4799236;29;20210;-69
2022/07/19 10:44:57;;;;;;;2.40;1.40;;;;;;;27.07;29.89;97633.22;4799252;29;20274;-69
2022/07/19 10:47:39;;;;;;;3.60;1.47;;;;;;;27.28;29.07;97625.69;4798129;29;20230;-68
2022/07/19 10:50:08;;;;;;;3.73;1.40;;;;;;;27.47;28.82;97623.78;4799145;29;20683;-68
2022/07/19 10:52:39;;;;;;;1.50;1.40;;;;;;;27.77;28.48;97608.06;4799121;29;20217;-68
2022/07/19 10:55:18;;;;;;;5.10;1.30;;;;;;;28.28;28.47;97622.13;4799153;29;20259;-68
2022/07/19 10:58:11;;;;;;;1.53;1.27;;;;;;;27.55;28.86;97621.16;4799168;29;20245;-68
2022/07/19 11:00:49;;;;;;;4.07;1.50;;;;;;;27.80;28.98;97621.03;4799033;29;20681;-68
2022/07/19 11:03:25;;;;;;;3.47;1.37;;;;;;;27.50;29.32;97616.31;4799115;29;20269;-69
2022/07/19 11:05:53;;;;;;;2.07;1.43;;;;;;;27.76;28.96;97616.22;4783128;29;20256;-68
2022/07/19 11:08:37;;;;;;;2.57;1.63;;;;;;;27.73;29.12;97600.56;4799055;29;20233;-69
2022/07/19 11:11:12;;;;;;;1.23;1.13;;;;;;;27.41;29.19;97608.47;4799079;29;20571;-69
2022/07/19 11:13:42;;;;;;;1.73;1.27;;;;;;;27.42;29.37;97596.81;4799055;29;20217;-68
2022/07/19 11:16:09;;;;;;;1.57;1.20;;;;;;;27.82;29.34;97594.28;4801158;29;20323;-68
2022/07/19 11:18:36;;;;;;;2.13;1.23;;;;;;;27.67;28.90;97599.41;4802981;29;20217;-68
2022/07/19 11:21:05;;;;;;;2.37;1.80;;;;;;;28.03;28.76;97582.16;4802377;29;20214;-68
2022/07/19 11:23:38;;;;;;;2.13;1.50;;;;;;;28.54;27.76;97586.31;4802625;29;20238;-70
2022/07/19 11:26:09;;;;;;;3.37;1.60;;;;;;;28.72;28.01;97592.34;4802675;29;21041;-68
2022/07/19 11:28:38;;;;;;;2.13;1.20;;;;;;;27.66;29.22;97586.22;4802449;29;20234;-68
2022/07/19 11:31:25;;;;;;;2.07;1.40;;;;;;;27.66;29.67;97594.22;4802700;29;20264;-68
2022/07/19 11:33:57;;;;;;;1.67;1.30;;;;;;;27.74;29.36;97580.97;4802740;29;20210;-69
2022/07/19 11:36:26;;;;;;;4.43;1.90;;;;;;;28.24;29.22;97583.50;4802640;29;20207;-68
2022/07/19 11:38:59;;;;;;;1.93;1.40;;;;;;;28.25;29.37;97586.03;4802387;29;20234;-70
2022/07/19 11:41:32;;;;;;;1.33;1.23;;;;;;;28.26;29.46;97578.84;4802182;29;20199;-70
2022/07/19 11:44:08;;;;;;;2.37;1.33;;;;;;;27.93;29.08;97562.81;4802139;29;20238;-70